JNB weather

OR Tambo International Airport
Johannesburg, Gauteng, South Africa

Public forecast

Using degrees Celsius for public forecast. Weather courtesy of forecast.io.

METAR (pilot weather report)

Retrieved 2019/05/19 22:00 UTC (35 minutes ago):

FAOR 192200Z 29004KT CAVOK 15/02 Q1028 NOSIG

TAF (pilot weather forecast)

Retrieved 2019/05/19 18:00 UTC (5 hours ago):

TAF FAOR 191600Z 1918/2024 VRB03KT CAVOK TX22/2013Z TN12/2004Z FM200100 35007KT CAVOK BECMG 2007/2009 29008KT